FFA972 ENTC-ENSB
Flight info
| Callsign | FFA972 |
|---|---|
| Flight time | N/A |
| Altitude | 35000 |
| Route | LOMVI P600 PITOL/N0457F370 P600 INPAR |
| Aircraft | B738/M-SDE2E3FGHIRWXY/LB1 |
Departure
| Time | 2026-05-07 19:20 |
|---|---|
| Airport | Tromsø Airport (ENTC) |
Arrival
| Time | N/A |
|---|---|
| Airport | Svalbard Airport, Longyear (ENSB) |
| Time | Latitude | Longitude | Altitude | Speed | Heading |
|---|---|---|---|---|---|
| 2026-05-07 18:49 | 69.67855 | 18.90837 | 36 ft | 0 kts | 283° |
| 2026-05-07 19:06 | 69.67854 | 18.90848 | 36 ft | 2 kts | 283° |
| 2026-05-07 19:06 | 69.67849 | 18.90901 | 26 ft | 3 kts | 283° |
| 2026-05-07 19:07 | 69.67845 | 18.90958 | 37 ft | 3 kts | 283° |
| 2026-05-07 19:07 | 69.67840 | 18.91014 | 37 ft | 3 kts | 283° |
| 2026-05-07 19:07 | 69.67838 | 18.91045 | 37 ft | 0 kts | 283° |
| 2026-05-07 19:09 | 69.67838 | 18.91044 | 37 ft | 0 kts | 286° |
| 2026-05-07 19:09 | 69.67847 | 18.91043 | 35 ft | 3 kts | 7° |
| 2026-05-07 19:09 | 69.67895 | 18.91150 | 36 ft | 15 kts | 41° |
| 2026-05-07 19:09 | 69.68030 | 18.91297 | 33 ft | 26 kts | 13° |
| 2026-05-07 19:10 | 69.68220 | 18.91427 | 28 ft | 30 kts | 13° |
| 2026-05-07 19:10 | 69.68424 | 18.91496 | 26 ft | 29 kts | 1° |
| 2026-05-07 19:10 | 69.68602 | 18.91604 | 25 ft | 20 kts | 11° |
| 2026-05-07 19:10 | 69.68692 | 18.91657 | 21 ft | 8 kts | 12° |
| 2026-05-07 19:11 | 69.68725 | 18.91679 | 20 ft | 3 kts | 13° |
| 2026-05-07 19:11 | 69.68742 | 18.91691 | 19 ft | 2 kts | 14° |
| 2026-05-07 19:11 | 69.68755 | 18.91704 | 19 ft | 1 kts | 22° |
| 2026-05-07 19:11 | 69.68764 | 18.91719 | 19 ft | 1 kts | 34° |
| 2026-05-07 19:12 | 69.68770 | 18.91739 | 19 ft | 1 kts | 51° |
| 2026-05-07 19:12 | 69.68774 | 18.91762 | 20 ft | 1 kts | 68° |
| 2026-05-07 19:12 | 69.68775 | 18.91768 | 20 ft | 0 kts | 72° |
| 2026-05-07 19:13 | 69.68776 | 18.91788 | 20 ft | 3 kts | 77° |
| 2026-05-07 19:14 | 69.68776 | 18.91853 | 19 ft | 0 kts | 97° |
| 2026-05-07 19:15 | 69.68776 | 18.91859 | 19 ft | 1 kts | 98° |
| 2026-05-07 19:15 | 69.68774 | 18.91882 | 19 ft | 0 kts | 102° |
| 2026-05-07 19:17 | 69.68772 | 18.91900 | 19 ft | 5 kts | 103° |
| 2026-05-07 19:17 | 69.68779 | 18.92160 | 21 ft | 21 kts | 44° |
| 2026-05-07 19:17 | 69.68960 | 18.92304 | 23 ft | 33 kts | 13° |
| 2026-05-07 19:18 | 69.69222 | 18.92481 | 22 ft | 38 kts | 13° |
| 2026-05-07 19:18 | 69.69348 | 18.92625 | 22 ft | 11 kts | 353° |
| 2026-05-07 19:18 | 69.69353 | 18.92544 | 22 ft | 0 kts | 210° |
| 2026-05-07 19:18 | 69.69339 | 18.92548 | 22 ft | 5 kts | 175° |
| 2026-05-07 19:19 | 69.69317 | 18.92541 | 22 ft | 0 kts | 190° |
| 2026-05-07 19:19 | 69.69316 | 18.92541 | 22 ft | 2 kts | 190° |
| 2026-05-07 19:19 | 69.69086 | 18.92389 | 22 ft | 73 kts | 193° |
| 2026-05-07 19:19 | 69.68365 | 18.91915 | 27 ft | 140 kts | 193° |
| 2026-05-07 19:20 | 69.67275 | 18.91177 | 404 ft | 169 kts | 193° |
| 2026-05-07 19:20 | 69.66107 | 18.90386 | 1236 ft | 177 kts | 193° |
| 2026-05-07 19:20 | 69.64878 | 18.89589 | 1986 ft | 194 kts | 192° |
| 2026-05-07 19:20 | 69.63527 | 18.88728 | 2659 ft | 202 kts | 192° |
| 2026-05-07 19:21 | 69.62131 | 18.87846 | 3282 ft | 211 kts | 192° |
| 2026-05-07 19:21 | 69.60670 | 18.86927 | 3988 ft | 217 kts | 192° |
| 2026-05-07 19:21 | 69.59221 | 18.85726 | 4879 ft | 218 kts | 210° |
| 2026-05-07 19:21 | 69.58221 | 18.82530 | 5702 ft | 219 kts | 248° |
| 2026-05-07 19:22 | 69.58073 | 18.78210 | 6515 ft | 222 kts | 278° |
| 2026-05-07 19:22 | 69.58380 | 18.73854 | 7304 ft | 224 kts | 283° |
| 2026-05-07 19:22 | 69.58748 | 18.69568 | 8118 ft | 225 kts | 287° |
| 2026-05-07 19:22 | 69.59571 | 18.65776 | 8910 ft | 228 kts | 319° |
| 2026-05-07 19:23 | 69.60990 | 18.63712 | 9659 ft | 237 kts | 347° |
| 2026-05-07 19:23 | 69.62714 | 18.64117 | 9913 ft | 268 kts | 21° |
| 2026-05-07 19:23 | 69.64409 | 18.66753 | 10315 ft | 287 kts | 29° |
| 2026-05-07 19:23 | 69.66204 | 18.69862 | 10501 ft | 313 kts | 30° |
| 2026-05-07 19:24 | 69.68140 | 18.73228 | 10764 ft | 335 kts | 29° |
| 2026-05-07 19:24 | 69.70167 | 18.76721 | 11408 ft | 343 kts | 29° |
| 2026-05-07 19:24 | 69.72233 | 18.80248 | 12210 ft | 346 kts | 28° |
| 2026-05-07 19:24 | 69.74325 | 18.83795 | 12984 ft | 351 kts | 28° |
| 2026-05-07 19:25 | 69.76422 | 18.87334 | 13738 ft | 355 kts | 28° |
| 2026-05-07 19:25 | 69.78572 | 18.90962 | 14447 ft | 359 kts | 28° |
| 2026-05-07 19:25 | 69.80739 | 18.94628 | 15178 ft | 362 kts | 28° |
| 2026-05-07 19:25 | 69.83030 | 18.97635 | 15854 ft | 362 kts | 10° |
| 2026-05-07 19:26 | 69.85534 | 18.98288 | 16606 ft | 361 kts | 359° |
| 2026-05-07 19:26 | 69.88059 | 18.98461 | 17383 ft | 362 kts | 359° |
| 2026-05-07 19:26 | 69.90590 | 18.98618 | 18122 ft | 365 kts | 359° |
| 2026-05-07 19:26 | 69.93108 | 18.98794 | 18713 ft | 369 kts | 359° |
| 2026-05-07 19:27 | 69.95697 | 18.99004 | 19310 ft | 373 kts | 359° |
| 2026-05-07 19:27 | 69.98309 | 18.99240 | 19923 ft | 376 kts | 360° |
| 2026-05-07 19:27 | 70.00936 | 18.99489 | 20514 ft | 379 kts | 0° |
| 2026-05-07 19:27 | 70.03584 | 18.99744 | 21085 ft | 382 kts | 0° |
| 2026-05-07 19:28 | 70.06255 | 19.00001 | 21662 ft | 386 kts | 0° |
| 2026-05-07 19:28 | 70.08942 | 18.99786 | 22182 ft | 388 kts | 348° |
| 2026-05-07 19:28 | 70.11530 | 18.97546 | 22751 ft | 389 kts | 340° |
| 2026-05-07 19:28 | 70.14103 | 18.94990 | 23290 ft | 392 kts | 340° |
| 2026-05-07 19:29 | 70.16670 | 18.92446 | 23764 ft | 396 kts | 341° |
| 2026-05-07 19:29 | 70.19302 | 18.89865 | 24181 ft | 399 kts | 341° |
| 2026-05-07 19:29 | 70.21954 | 18.87291 | 24618 ft | 402 kts | 341° |
| 2026-05-07 19:29 | 70.24623 | 18.84719 | 25029 ft | 405 kts | 341° |
| 2026-05-07 19:30 | 70.26404 | 18.83007 | 25304 ft | 407 kts | 341° |
| 2026-05-07 19:30 | 70.29105 | 18.80411 | 25707 ft | 410 kts | 341° |
| 2026-05-07 19:30 | 70.31829 | 18.77790 | 26111 ft | 412 kts | 341° |
| 2026-05-07 19:30 | 70.34568 | 18.75149 | 26487 ft | 415 kts | 341° |
| 2026-05-07 19:31 | 70.37333 | 18.72474 | 26856 ft | 418 kts | 341° |
| 2026-05-07 19:31 | 70.40117 | 18.69772 | 27215 ft | 421 kts | 341° |
| 2026-05-07 19:31 | 70.42907 | 18.67056 | 27598 ft | 424 kts | 341° |
| 2026-05-07 19:31 | 70.45718 | 18.64312 | 27981 ft | 426 kts | 341° |
| 2026-05-07 19:32 | 70.48509 | 18.61578 | 28303 ft | 429 kts | 341° |
| 2026-05-07 19:32 | 70.51349 | 18.58794 | 28666 ft | 431 kts | 341° |
| 2026-05-07 19:32 | 70.54205 | 18.55982 | 28959 ft | 434 kts | 341° |
| 2026-05-07 19:32 | 70.57084 | 18.53137 | 29349 ft | 435 kts | 341° |
| 2026-05-07 19:33 | 70.59976 | 18.50267 | 29644 ft | 438 kts | 341° |
| 2026-05-07 19:33 | 70.62878 | 18.47376 | 30011 ft | 439 kts | 341° |
| 2026-05-07 19:33 | 70.65783 | 18.44471 | 30361 ft | 439 kts | 341° |
| 2026-05-07 19:33 | 70.68693 | 18.41554 | 30598 ft | 442 kts | 341° |
| 2026-05-07 19:34 | 70.71614 | 18.38620 | 30945 ft | 440 kts | 341° |
| 2026-05-07 19:34 | 70.74486 | 18.35724 | 31264 ft | 441 kts | 341° |
| 2026-05-07 19:34 | 70.77397 | 18.32782 | 31560 ft | 441 kts | 341° |
| 2026-05-07 19:34 | 70.80318 | 18.29820 | 31799 ft | 443 kts | 341° |
| 2026-05-07 19:35 | 70.83253 | 18.26835 | 32091 ft | 444 kts | 341° |
| 2026-05-07 19:35 | 70.86191 | 18.23836 | 32364 ft | 444 kts | 341° |
| 2026-05-07 19:35 | 70.89119 | 18.20840 | 32719 ft | 444 kts | 341° |
| 2026-05-07 19:35 | 70.92051 | 18.17829 | 33033 ft | 444 kts | 341° |
| 2026-05-07 19:36 | 70.94987 | 18.14805 | 33212 ft | 446 kts | 341° |
| 2026-05-07 19:36 | 70.97925 | 18.11769 | 33556 ft | 445 kts | 341° |
| 2026-05-07 19:36 | 71.00832 | 18.08756 | 33780 ft | 447 kts | 341° |
| 2026-05-07 19:36 | 71.03777 | 18.05693 | 34076 ft | 447 kts | 341° |
| 2026-05-07 19:37 | 71.06724 | 18.02619 | 34286 ft | 448 kts | 341° |
| 2026-05-07 19:37 | 71.09689 | 17.99517 | 34507 ft | 448 kts | 341° |
| 2026-05-07 19:37 | 71.12649 | 17.96409 | 34708 ft | 449 kts | 341° |
| 2026-05-07 19:37 | 71.15621 | 17.93279 | 34889 ft | 450 kts | 341° |
| 2026-05-07 19:38 | 71.18581 | 17.90152 | 35131 ft | 449 kts | 341° |
| 2026-05-07 19:38 | 71.21513 | 17.87045 | 35096 ft | 451 kts | 341° |
| 2026-05-07 19:38 | 71.27440 | 17.80732 | 35114 ft | 449 kts | 341° |
| 2026-05-07 19:39 | 71.33350 | 17.74396 | 35125 ft | 448 kts | 341° |